»·PEaware :: N123SX CSE5-KMSP

N123SX :: CSE5-KMSP

FLIGHT INFORMATION

Flight Status: Arrived
Operator: Privately registered:
United States
More flights under this callsign
Pilot: Shawn G. (7208)
Aircraft: SOCATA TBM-900
(TBM9)
More flights by this aircraft type
Origin: CSE5 Montmagny
Canada
Destination: KMSP Minneapolis-St Paul Intl
United States
More flights between these airports :: More routes between these airports
Route: YQB YYB GRB EAU9
File this flight plan on PilotEdge
Remarks:
Altitude:
(Current/Filed)
30,000ft
Speed:
(Current/Filed)
330kts
Departed: 21-Dec-18 11:03 AM
Arrived: 21-Dec-18 02:31 PM
Distance/Time
Traveled:
953nm/3:27
Distance/Time
To Go:
Arrived

Flight Plot

Page will automatically refresh every two minutes.

Flight plan parsing failed; only flown route is shown


Map Options




Map Legend


Flown Route
Filed Route
Departure Airport
Arrival Airport
Navaid (VOR, NDB)
Fix

Horizontal Profiles

Position Reports

Time Latitude Longitude Heading Altitude Ground
Speed
21-Dec-18 10:54 47.000827 -70.515157 48 35ft 0kts
21-Dec-18 10:55 47.000827 -70.515157 48 35ft 0kts
21-Dec-18 10:56 47.000827 -70.515157 48 35ft 0kts
21-Dec-18 10:57 47.000827 -70.515157 48 35ft 0kts
21-Dec-18 10:59 47.000827 -70.515157 48 35ft 0kts
21-Dec-18 11:00 47.000827 -70.515157 48 35ft 0kts
21-Dec-18 11:01 47.001369 -70.516905 236 35ft 23kts
21-Dec-18 11:02 46.999845 -70.520782 54 35ft 2kts
21-Dec-18 11:03 47.013492 -70.500801 347 745ft 144kts
21-Dec-18 11:04 47.000423 -70.563491 233 2531ft 178kts
21-Dec-18 11:05 46.974748 -70.630368 242 4320ft 192kts
21-Dec-18 11:06 46.954485 -70.706271 238 5808ft 198kts
21-Dec-18 11:07 46.934715 -70.780768 233 7495ft 184kts
21-Dec-18 11:08 46.916201 -70.849980 231 9520ft 166kts
21-Dec-18 11:09 46.900501 -70.908125 235 11758ft 141kts
21-Dec-18 11:10 46.885996 -70.962288 236 13699ft 144kts
21-Dec-18 11:11 46.871087 -71.017829 237 15493ft 148kts
21-Dec-18 11:12 46.855791 -71.074703 237 17297ft 148kts
21-Dec-18 11:13 46.840512 -71.131317 236 18854ft 149kts
21-Dec-18 11:14 46.825038 -71.188456 236 20227ft 150kts
21-Dec-18 11:15 46.809270 -71.246595 236 21841ft 152kts
21-Dec-18 11:16 46.793582 -71.304271 236 23344ft 152kts
21-Dec-18 11:17 46.777494 -71.363258 236 24716ft 157kts
21-Dec-18 11:18 46.761294 -71.422550 236 26296ft 156kts
21-Dec-18 11:18 46.747564 -71.472700 236 27590ft 159kts
21-Dec-18 11:19 46.730883 -71.533399 236 29013ft 160kts
21-Dec-18 11:20 46.713296 -71.597089 236 29631ft 184kts
21-Dec-18 11:21 46.704796 -71.681276 252 29633ft 228kts
21-Dec-18 11:23 46.703579 -71.794103 253 29622ft 240kts
21-Dec-18 11:23 46.702654 -71.876430 253 29620ft 243kts
21-Dec-18 11:25 46.701240 -71.992893 253 29620ft 244kts
21-Dec-18 11:25 46.700141 -72.076549 253 29584ft 245kts
21-Dec-18 11:26 46.698746 -72.177290 253 29531ft 246kts
21-Dec-18 11:27 46.697256 -72.278655 254 29488ft 246kts
21-Dec-18 11:28 46.695691 -72.379349 253 29486ft 245kts
21-Dec-18 11:29 46.694025 -72.479488 253 29486ft 244kts
21-Dec-18 11:30 46.692272 -72.580183 254 29485ft 244kts
21-Dec-18 11:31 46.690444 -72.680531 253 29495ft 244kts
21-Dec-18 11:32 46.688526 -72.780620 253 29494ft 245kts
21-Dec-18 11:33 46.683722 -72.879720 250 29493ft 241kts
21-Dec-18 11:34 46.677089 -72.978110 250 29492ft 241kts
21-Dec-18 11:35 46.670279 -73.076773 248 29490ft 242kts
21-Dec-18 11:36 46.663282 -73.176044 246 29490ft 244kts
21-Dec-18 11:37 46.656094 -73.275894 246 29349ft 251kts
21-Dec-18 11:38 46.651604 -73.370443 246 30370ft 201kts
21-Dec-18 11:39 46.647326 -73.463541 247 29458ft 249kts
21-Dec-18 11:40 46.639423 -73.570090 247 28491ft 269kts
21-Dec-18 11:41 46.629089 -73.680718 248 27489ft 276kts
21-Dec-18 11:42 46.620589 -73.793518 249 26513ft 276kts
21-Dec-18 11:43 46.611973 -73.905403 249 25526ft 274kts
21-Dec-18 11:44 46.603615 -74.012911 248 25448ft 256kts
21-Dec-18 11:45 46.595466 -74.115899 248 25451ft 250kts
21-Dec-18 11:46 46.587383 -74.216939 248 25450ft 247kts
21-Dec-18 11:47 46.577793 -74.316607 235 25433ft 230kts
21-Dec-18 11:48 46.552600 -74.403457 235 25449ft 230kts
21-Dec-18 11:49 46.527552 -74.490087 235 25448ft 229kts
21-Dec-18 11:50 46.502504 -74.576665 235 25446ft 230kts
21-Dec-18 11:51 46.477443 -74.663229 234 25451ft 230kts
21-Dec-18 11:52 46.452288 -74.749971 234 25434ft 230kts
21-Dec-18 11:53 46.443481 -74.848053 254 25414ft 256kts
21-Dec-18 11:54 46.443922 -74.998482 255 22840ft 281kts
21-Dec-18 11:55 46.443923 -75.262727 258 18162ft 283kts
21-Dec-18 11:56 46.443205 -75.559022 261 13085ft 285kts
21-Dec-18 11:57 46.442028 -75.810219 261 9386ft 268kts
21-Dec-18 11:58 46.395279 -76.010974 236 5758ft 229kts
21-Dec-18 11:59 46.304797 -76.162390 179 1913ft 176kts
21-Dec-18 12:00 46.252967 -76.138757 144 2277ft 222kts
21-Dec-18 12:01 46.252967 -76.138757 144 2277ft 222kts
21-Dec-18 12:02 46.245392 -76.089265 68 1354ft 205kts
21-Dec-18 12:03 46.261672 -76.033933 59 985ft 135kts
21-Dec-18 12:04 46.291345 -75.990796 30 1095ft 144kts
21-Dec-18 12:14 46.272240 -75.992916 285 662ft 0kts
21-Dec-18 12:15 46.272240 -75.992916 285 662ft 0kts
21-Dec-18 12:16 46.272240 -75.992916 285 662ft 0kts
21-Dec-18 12:17 46.272240 -75.992916 285 662ft 0kts
21-Dec-18 12:18 46.272253 -75.992978 285 662ft 0kts
21-Dec-18 12:19 46.271337 -75.993450 187 662ft 12kts
21-Dec-18 12:20 46.272972 -75.991738 115 662ft 0kts
21-Dec-18 12:21 46.272321 -75.990886 198 662ft 18kts
21-Dec-18 12:22 46.266507 -75.993242 11 662ft 3kts
21-Dec-18 12:23 46.273610 -75.990383 26 676ft 89kts
21-Dec-18 12:24 46.301294 -75.986930 7 2451ft 123kts
21-Dec-18 12:25 46.319691 -76.022900 263 4512ft 148kts
21-Dec-18 12:26 46.315066 -76.083292 254 6745ft 150kts
21-Dec-18 12:27 46.309717 -76.143460 248 9081ft 149kts
21-Dec-18 12:28 46.304835 -76.197054 246 11598ft 118kts
21-Dec-18 12:29 46.300658 -76.242895 244 13560ft 117kts
21-Dec-18 12:30 46.296455 -76.289429 243 15292ft 117kts
21-Dec-18 12:31 46.292247 -76.335657 242 16863ft 117kts
21-Dec-18 12:32 46.287971 -76.382698 240 18650ft 119kts
21-Dec-18 12:33 46.283715 -76.428797 239 20567ft 116kts
21-Dec-18 12:34 46.279477 -76.474971 237 22701ft 116kts
21-Dec-18 12:35 46.275224 -76.520564 236 24615ft 115kts
21-Dec-18 12:36 46.270971 -76.566216 235 26274ft 116kts
21-Dec-18 12:37 46.266656 -76.612359 234 27746ft 117kts
21-Dec-18 12:38 46.262248 -76.659185 234 29286ft 119kts
21-Dec-18 12:39 46.256096 -76.721877 241 29373ft 190kts
21-Dec-18 12:40 46.248302 -76.805171 243 29355ft 222kts
21-Dec-18 12:41 46.239511 -76.897451 244 29346ft 238kts
21-Dec-18 12:42 46.230164 -76.994211 245 29345ft 247kts
21-Dec-18 12:43 46.220410 -77.094450 246 29345ft 254kts
21-Dec-18 12:44 46.210368 -77.196507 246 29342ft 257kts
21-Dec-18 12:45 46.200196 -77.298834 246 29339ft 258kts
21-Dec-18 12:46 46.190021 -77.400294 246 29340ft 258kts
21-Dec-18 12:47 46.179631 -77.502923 246 29337ft 258kts
21-Dec-18 12:48 46.169152 -77.605538 246 29336ft 258kts
21-Dec-18 12:49 46.158558 -77.708066 245 29344ft 258kts
21-Dec-18 12:50 46.147902 -77.810537 245 29345ft 258kts
21-Dec-18 12:51 46.137145 -77.912983 246 29343ft 258kts
21-Dec-18 12:52 46.126294 -78.015398 246 29342ft 257kts
21-Dec-18 12:53 46.115395 -78.117471 245 29340ft 257kts
21-Dec-18 12:54 46.104407 -78.219306 246 29339ft 257kts
21-Dec-18 12:55 46.093352 -78.321150 245 29349ft 257kts
21-Dec-18 12:56 46.082209 -78.422787 245 29363ft 256kts
21-Dec-18 12:57 46.070949 -78.524488 245 29374ft 257kts
21-Dec-18 12:58 46.059605 -78.626261 245 29371ft 257kts
21-Dec-18 12:59 46.048260 -78.727149 245 29378ft 257kts
21-Dec-18 13:00 46.036714 -78.829048 245 29376ft 257kts
21-Dec-18 13:01 46.025081 -78.930641 245 29378ft 257kts
21-Dec-18 13:02 46.013307 -79.032513 246 29374ft 259kts
21-Dec-18 13:03 46.001255 -79.136077 248 29376ft 266kts
21-Dec-18 13:04 45.988757 -79.243000 249 29380ft 274kts
21-Dec-18 13:05 45.975858 -79.352377 249 29378ft 278kts
21-Dec-18 13:07 45.962754 -79.462355 249 29376ft 280kts
21-Dec-18 13:08 45.949450 -79.573070 249 29375ft 280kts
21-Dec-18 13:09 45.936069 -79.683416 249 29379ft 280kts
21-Dec-18 13:10 45.922592 -79.793693 249 29378ft 280kts
21-Dec-18 13:11 45.908993 -79.904020 249 29377ft 280kts
21-Dec-18 13:12 45.895192 -80.014365 251 29403ft 280kts
21-Dec-18 13:13 45.881384 -80.125240 251 29401ft 282kts
21-Dec-18 13:14 45.867331 -80.236514 251 29425ft 282kts
21-Dec-18 13:15 45.853234 -80.347188 251 29471ft 281kts
21-Dec-18 13:16 45.839030 -80.457775 251 29499ft 282kts
21-Dec-18 13:17 45.824730 -80.568281 251 29498ft 282kts
21-Dec-18 13:18 45.810264 -80.679126 250 29503ft 282kts
21-Dec-18 13:19 45.795712 -80.789833 250 29501ft 282kts
21-Dec-18 13:20 45.781037 -80.900344 251 29501ft 282kts
21-Dec-18 13:21 45.766254 -81.010684 253 29499ft 281kts
21-Dec-18 13:22 45.751438 -81.120799 256 29495ft 280kts
21-Dec-18 13:23 45.736604 -81.230604 256 29491ft 281kts
21-Dec-18 13:23 45.724106 -81.322103 256 29486ft 281kts
21-Dec-18 13:25 45.706496 -81.450079 256 29495ft 280kts
21-Dec-18 13:25 45.693847 -81.541329 256 29506ft 280kts
21-Dec-18 13:27 45.676008 -81.669079 255 29525ft 280kts
21-Dec-18 13:28 45.660629 -81.778307 255 29549ft 280kts
21-Dec-18 13:28 45.647708 -81.869485 255 29571ft 280kts
21-Dec-18 13:29 45.632097 -81.978891 255 29571ft 281kts
21-Dec-18 13:31 45.613708 -82.106787 255 29569ft 281kts
21-Dec-18 13:31 45.600500 -82.197958 255 29569ft 281kts
21-Dec-18 13:33 45.581870 -82.325645 255 29568ft 281kts
21-Dec-18 13:33 45.568481 -82.416787 255 29567ft 280kts
21-Dec-18 13:34 45.552366 -82.525775 255 29567ft 280kts
21-Dec-18 13:35 45.536153 -82.634657 255 29565ft 280kts
21-Dec-18 13:36 45.519753 -82.744039 254 29572ft 280kts
21-Dec-18 13:37 45.503249 -82.853200 255 29571ft 281kts
21-Dec-18 13:38 45.473639 -83.047448 257 29589ft 289kts
21-Dec-18 13:39 45.436360 -83.288875 256 29596ft 294kts
21-Dec-18 13:40 45.400952 -83.514751 256 29626ft 294kts
21-Dec-18 13:41 45.365271 -83.739287 256 29641ft 294kts
21-Dec-18 13:42 45.328910 -83.965022 256 29643ft 295kts
21-Dec-18 13:43 45.293118 -84.184288 256 29643ft 295kts
21-Dec-18 13:44 45.255903 -84.409296 256 29615ft 295kts
21-Dec-18 13:45 45.218403 -84.633104 256 29626ft 294kts
21-Dec-18 13:46 45.181079 -84.853033 255 29656ft 295kts
21-Dec-18 13:47 45.141831 -85.081146 257 29687ft 296kts
21-Dec-18 13:48 45.101593 -85.312402 257 29696ft 305kts
21-Dec-18 13:49 45.061386 -85.540363 257 29689ft 306kts
21-Dec-18 13:50 45.018665 -85.779419 257 29671ft 306kts
21-Dec-18 13:51 44.970629 -86.044540 257 29688ft 305kts
21-Dec-18 13:52 44.921343 -86.312669 257 29707ft 305kts
21-Dec-18 13:53 44.870085 -86.587482 257 29704ft 305kts
21-Dec-18 13:54 44.818562 -86.859787 256 29753ft 305kts
21-Dec-18 13:55 44.767008 -87.128049 261 29757ft 308kts
21-Dec-18 13:56 44.714669 -87.397312 260 29759ft 313kts
21-Dec-18 13:57 44.663678 -87.655771 260 29765ft 311kts
21-Dec-18 13:58 44.614556 -87.901619 260 29795ft 312kts
21-Dec-18 13:59 44.563072 -88.156046 260 29788ft 313kts
21-Dec-18 14:00 44.580649 -88.410284 284 29793ft 299kts
21-Dec-18 14:01 44.610292 -88.665409 283 29807ft 299kts
21-Dec-18 14:02 44.639515 -88.922386 284 29815ft 297kts
21-Dec-18 14:03 44.668407 -89.181354 286 29823ft 290kts
21-Dec-18 14:04 44.695336 -89.428028 285 29820ft 289kts
21-Dec-18 14:05 44.719747 -89.656247 285 29822ft 289kts
21-Dec-18 14:06 44.743661 -89.884234 285 29819ft 290kts
21-Dec-18 14:07 44.768347 -90.124464 285 29814ft 290kts
21-Dec-18 14:08 44.791435 -90.354007 285 29812ft 290kts
21-Dec-18 14:09 44.815141 -90.594760 285 29810ft 289kts
21-Dec-18 14:10 44.837992 -90.832086 284 29833ft 290kts
21-Dec-18 14:11 44.860142 -91.066849 283 28440ft 314kts
21-Dec-18 14:12 44.883678 -91.323236 282 24316ft 319kts
21-Dec-18 14:13 44.916057 -91.575352 289 19940ft 310kts
21-Dec-18 14:14 44.962298 -91.820976 288 15086ft 291kts
21-Dec-18 14:15 45.003564 -92.042951 287 10972ft 272kts
21-Dec-18 14:16 45.042364 -92.254087 287 7481ft 272kts
21-Dec-18 14:17 45.034229 -92.382542 259 6729ft 264kts
21-Dec-18 14:18 45.017599 -92.487929 259 5309ft 272kts
21-Dec-18 14:19 45.001785 -92.587537 259 4979ft 253kts
21-Dec-18 14:20 44.953095 -92.653752 209 4982ft 255kts
21-Dec-18 14:21 44.895091 -92.711422 219 4981ft 254kts
21-Dec-18 14:22 44.838914 -92.775446 219 3732ft 239kts
21-Dec-18 14:23 44.790791 -92.832340 235 2973ft 225kts
21-Dec-18 14:24 44.769490 -92.913273 269 2994ft 223kts
21-Dec-18 14:25 44.784516 -92.997134 302 2988ft 214kts
21-Dec-18 14:26 44.815502 -93.068092 302 2981ft 194kts
21-Dec-18 14:27 44.839662 -93.123493 301 2141ft 116kts
21-Dec-18 14:28 44.854568 -93.157732 301 1554ft 94kts
21-Dec-18 14:29 44.868573 -93.189909 302 1041ft 92kts
21-Dec-18 14:30 44.880025 -93.216132 325 844ft 30kts
21-Dec-18 14:31 44.879522 -93.217570 221 844ft 0kts
21-Dec-18 14:32 44.877759 -93.217350 282 844ft 0kts
21-Dec-18 14:33 44.877759 -93.217350 282 844ft 0kts
21-Dec-18 14:34 44.877759 -93.217350 282 844ft 0kts

Navigation Log

Ident Type
Flight plan parsing failed, navigation log unavailable